NWS254 UWUU-ULLI
Flight info
| Callsign | NWS254 |
|---|---|
| Flight time | N/A |
| Altitude | 36000 |
| Route | N0460F360 TILMU N985 ORTIM L158 IRGOS T613 DOGOB M864 IBROT T784 ROKUR P164 PINOK N50 GENPA |
| Aircraft | B738/M-Q/L |
Departure
| Time | 2026-04-27 16:01 |
|---|---|
| Airport | Ufa International Airport (UWUU) |
Arrival
| Time | N/A |
|---|---|
| Airport | Pulkovo Airport (ULLI) |
| Time | Latitude | Longitude | Altitude | Speed | Heading |
|---|---|---|---|---|---|
| 2026-04-27 15:38 | 54.56210 | 55.88579 | 385 ft | 0 kts | 60° |
| 2026-04-27 15:52 | 54.56208 | 55.88574 | 384 ft | 2 kts | 60° |
| 2026-04-27 15:52 | 54.56201 | 55.88552 | 384 ft | 2 kts | 59° |
| 2026-04-27 15:53 | 54.56193 | 55.88530 | 384 ft | 2 kts | 60° |
| 2026-04-27 15:53 | 54.56186 | 55.88507 | 384 ft | 1 kts | 50° |
| 2026-04-27 15:53 | 54.56173 | 55.88497 | 384 ft | 2 kts | 359° |
| 2026-04-27 15:53 | 54.56158 | 55.88499 | 384 ft | 2 kts | 351° |
| 2026-04-27 15:54 | 54.56145 | 55.88506 | 384 ft | 2 kts | 334° |
| 2026-04-27 15:54 | 54.56138 | 55.88512 | 384 ft | 0 kts | 327° |
| 2026-04-27 15:56 | 54.56143 | 55.88506 | 384 ft | 4 kts | 327° |
| 2026-04-27 15:56 | 54.56178 | 55.88469 | 384 ft | 6 kts | 331° |
| 2026-04-27 15:56 | 54.56240 | 55.88413 | 383 ft | 14 kts | 332° |
| 2026-04-27 15:56 | 54.56329 | 55.88329 | 381 ft | 14 kts | 332° |
| 2026-04-27 15:57 | 54.56410 | 55.88232 | 380 ft | 13 kts | 297° |
| 2026-04-27 15:57 | 54.56392 | 55.88078 | 379 ft | 16 kts | 242° |
| 2026-04-27 15:57 | 54.56312 | 55.87838 | 381 ft | 24 kts | 241° |
| 2026-04-27 15:57 | 54.56214 | 55.87535 | 391 ft | 30 kts | 240° |
| 2026-04-27 15:58 | 54.56112 | 55.87225 | 399 ft | 33 kts | 240° |
| 2026-04-27 15:58 | 54.55995 | 55.86868 | 409 ft | 32 kts | 240° |
| 2026-04-27 15:58 | 54.55891 | 55.86553 | 412 ft | 21 kts | 241° |
| 2026-04-27 15:58 | 54.55878 | 55.86339 | 411 ft | 20 kts | 314° |
| 2026-04-27 15:59 | 54.56058 | 55.86153 | 406 ft | 41 kts | 330° |
| 2026-04-27 15:59 | 54.56327 | 55.85894 | 397 ft | 45 kts | 330° |
| 2026-04-27 15:59 | 54.56609 | 55.85621 | 388 ft | 46 kts | 331° |
| 2026-04-27 15:59 | 54.56891 | 55.85350 | 380 ft | 36 kts | 333° |
| 2026-04-27 16:00 | 54.57104 | 55.85141 | 373 ft | 31 kts | 331° |
| 2026-04-27 16:00 | 54.57227 | 55.85096 | 369 ft | 22 kts | 355° |
| 2026-04-27 16:00 | 54.57198 | 55.85046 | 370 ft | 8 kts | 153° |
| 2026-04-27 16:00 | 54.57108 | 55.85133 | 373 ft | 37 kts | 150° |
| 2026-04-27 16:01 | 54.56697 | 55.85533 | 386 ft | 98 kts | 150° |
| 2026-04-27 16:01 | 54.55939 | 55.86267 | 410 ft | 149 kts | 151° |
| 2026-04-27 16:01 | 54.54918 | 55.87217 | 630 ft | 175 kts | 151° |
| 2026-04-27 16:01 | 54.53827 | 55.88148 | 1309 ft | 176 kts | 163° |
| 2026-04-27 16:02 | 54.52682 | 55.87963 | 2188 ft | 173 kts | 202° |
| 2026-04-27 16:02 | 54.51816 | 55.86426 | 2661 ft | 194 kts | 233° |
| 2026-04-27 16:02 | 54.51539 | 55.84128 | 3394 ft | 207 kts | 261° |
| 2026-04-27 16:02 | 54.51873 | 55.81561 | 3694 ft | 235 kts | 278° |
| 2026-04-27 16:03 | 54.52374 | 55.78778 | 4095 ft | 245 kts | 275° |
| 2026-04-27 16:03 | 54.52789 | 55.75894 | 4591 ft | 254 kts | 274° |
| 2026-04-27 16:03 | 54.53255 | 55.72878 | 5082 ft | 266 kts | 277° |
| 2026-04-27 16:03 | 54.53806 | 55.69838 | 5687 ft | 273 kts | 278° |
| 2026-04-27 16:04 | 54.54417 | 55.66729 | 6382 ft | 276 kts | 279° |
| 2026-04-27 16:04 | 54.55027 | 55.63650 | 7159 ft | 275 kts | 279° |
| 2026-04-27 16:04 | 54.55640 | 55.60515 | 7862 ft | 277 kts | 279° |